Time;durP1;ratioP1;P1;durP2;ratioP2;P2;SDS_P1;SDS_P2;PMS_P1;PMS_P2;Temp;Humidity;BMP_temperature;BMP_pressure;BME280_temperature;BME280_humidity;BME280_pressure;Samples;Min_cycle;Max_cycle;Signal;HPM_P1;HPM_P2
2022/03/30 00:02:15;;;;;;;10.50;6.13;;;;;;;;;;5027192;28;20414;-59
2022/03/30 00:04:42;;;;;;;10.70;5.43;;;;;;;;;;5027593;28;20490;-59
2022/03/30 00:07:09;;;;;;;12.77;5.43;;;;;;;;;;5027970;28;20775;-59
2022/03/30 00:09:36;;;;;;;10.37;5.43;;;;;;;;;;5026458;28;20430;-59
2022/03/30 00:12:03;;;;;;;13.60;5.93;;;;;;;;;;5027458;28;21309;-58
2022/03/30 00:14:47;;;;;;;11.23;5.73;;;;;;;;;;5026237;28;20504;-59
2022/03/30 00:17:14;;;;;;;9.37;5.17;;;;;;;;;;5027570;28;20432;-59
2022/03/30 00:19:41;;;;;;;13.17;4.93;;;;;;;;;;5027582;28;20521;-59
2022/03/30 00:22:08;;;;;;;9.67;5.20;;;;;;;;;;5027795;28;20457;-58
2022/03/30 00:24:44;;;;;;;10.50;5.20;;;;;;;;;;5027631;28;20434;-58
2022/03/30 00:27:11;;;;;;;9.67;4.60;;;;;;;;;;5027491;28;20949;-59
2022/03/30 00:29:38;;;;;;;8.43;4.47;;;;;;;;;;5030996;28;20500;-59
2022/03/30 00:32:05;;;;;;;8.83;3.90;;;;;;;;;;5030488;28;20964;-59
2022/03/30 00:34:32;;;;;;;8.03;3.87;;;;;;;;;;5029717;28;20525;-58
2022/03/30 00:36:58;;;;;;;8.47;3.87;;;;;;;;;;5031595;28;20426;-58
2022/03/30 00:39:25;;;;;;;6.23;2.83;;;;;;;;;;5034574;28;20432;-59
2022/03/30 00:41:52;;;;;;;9.53;4.10;;;;;;;;;;5050852;28;20934;-58
2022/03/30 00:44:18;;;;;;;9.33;5.30;;;;;;;;;;5050438;28;20436;-58
2022/03/30 00:46:50;;;;;;;11.80;6.97;;;;;;;;;;5050848;28;20461;-59
2022/03/30 00:49:16;;;;;;;10.80;5.80;;;;;;;;;;5050617;28;20501;-59
2022/03/30 00:51:43;;;;;;;10.57;6.03;;;;;;;;;;5050714;28;20492;-59
2022/03/30 00:54:10;;;;;;;10.67;5.07;;;;;;;;;;5050475;28;20436;-59
2022/03/30 00:56:37;;;;;;;6.23;3.60;;;;;;;;;;5049208;28;20421;-59
2022/03/30 00:59:05;;;;;;;7.90;3.77;;;;;;;;;;5048828;28;20459;-59
2022/03/30 01:01:32;;;;;;;9.17;4.10;;;;;;;;;;5050334;28;20487;-59
2022/03/30 01:04:17;;;;;;;9.67;4.03;;;;;;;;;;5048934;28;20461;-59
2022/03/30 01:38:38;;;;;;;14.37;6.27;;;;;;;;;;5049479;28;21021;-59
2022/03/30 01:41:23;;;;;;;13.13;5.00;;;;;;;;;;5029241;28;20414;-59
2022/03/30 01:43:50;;;;;;;13.47;4.83;;;;;;;;;;5029694;28;20496;-58
2022/03/30 01:46:37;;;;;;;13.93;4.73;;;;;;;;;;5029754;28;21157;-58
2022/03/30 01:49:03;;;;;;;14.57;5.17;;;;;;;;;;5029370;28;20429;-59
2022/03/30 01:51:30;;;;;;;12.97;4.73;;;;;;;;;;5029421;28;20557;-59
2022/03/30 01:53:56;;;;;;;9.43;5.13;;;;;;;;;;5029544;28;20427;-59
2022/03/30 01:56:23;;;;;;;10.40;4.40;;;;;;;;;;5028981;28;21207;-59
2022/03/30 01:59:07;;;;;;;9.87;4.70;;;;;;;;;;5029299;28;20428;-59
2022/03/30 02:01:34;;;;;;;7.70;4.40;;;;;;;;;;5029558;28;20437;-58
2022/03/30 02:04:01;;;;;;;10.43;4.77;;;;;;;;;;5029146;28;20470;-59
2022/03/30 02:06:27;;;;;;;12.97;5.47;;;;;;;;;;5029364;28;20571;-59
2022/03/30 02:08:54;;;;;;;14.73;5.73;;;;;;;;;;5029181;28;20488;-58
2022/03/30 02:11:21;;;;;;;11.10;4.77;;;;;;;;;;5028787;28;20462;-59
2022/03/30 02:13:47;;;;;;;14.20;5.07;;;;;;;;;;5029324;28;20820;-58
2022/03/30 02:16:14;;;;;;;11.00;4.30;;;;;;;;;;5029104;28;20426;-58
2022/03/30 02:18:41;;;;;;;12.07;4.73;;;;;;;;;;5029326;28;20469;-58
2022/03/30 02:21:07;;;;;;;12.87;5.67;;;;;;;;;;5028797;28;20475;-58
2022/03/30 02:23:34;;;;;;;15.57;5.20;;;;;;;;;;5029059;28;20976;-58
2022/03/30 02:26:18;;;;;;;9.27;4.20;;;;;;;;;;5028797;28;20832;-58
2022/03/30 02:28:44;;;;;;;11.37;4.20;;;;;;;;;;5028434;28;20472;-58
2022/03/30 02:31:28;;;;;;;8.30;3.90;;;;;;;;;;5028682;28;20203;-58
2022/03/30 02:33:55;;;;;;;10.10;4.07;;;;;;;;;;5029194;28;20453;-58
2022/03/30 02:36:21;;;;;;;11.17;4.20;;;;;;;;;;5027194;28;20443;-59
2022/03/30 02:38:48;;;;;;;9.60;4.40;;;;;;;;;;5029232;28;20500;-59
2022/03/30 02:41:15;;;;;;;9.27;4.30;;;;;;;;;;5047315;28;20930;-59
2022/03/30 02:43:59;;;;;;;10.33;4.17;;;;;;;;;;5048523;28;20417;-59
2022/03/30 02:46:25;;;;;;;7.60;3.87;;;;;;;;;;5036349;28;20446;-59
2022/03/30 02:48:52;;;;;;;10.20;3.97;;;;;;;;;;5032700;28;20462;-58
2022/03/30 02:51:19;;;;;;;9.17;4.13;;;;;;;;;;5030982;28;21394;-59
2022/03/30 02:53:46;;;;;;;13.17;4.87;;;;;;;;;;5028433;28;20436;-59
2022/03/30 02:56:12;;;;;;;7.57;3.93;;;;;;;;;;5028259;28;20511;-59
2022/03/30 02:58:39;;;;;;;9.83;4.30;;;;;;;;;;5028584;28;20434;-58
2022/03/30 03:01:05;;;;;;;8.70;4.67;;;;;;;;;;5027019;28;20426;-59
2022/03/30 03:03:32;;;;;;;10.47;4.70;;;;;;;;;;5028348;28;20837;-59
2022/03/30 03:05:59;;;;;;;9.53;4.20;;;;;;;;;;5028173;28;20433;-59
2022/03/30 03:08:26;;;;;;;10.70;3.70;;;;;;;;;;5027975;28;20432;-59
2022/03/30 03:10:53;;;;;;;8.60;3.70;;;;;;;;;;5027933;28;20430;-60
2022/03/30 03:13:19;;;;;;;7.57;3.80;;;;;;;;;;5028378;28;21286;-59
2022/03/30 03:15:46;;;;;;;10.00;4.37;;;;;;;;;;5028221;28;20492;-59
2022/03/30 03:18:18;;;;;;;9.00;3.80;;;;;;;;;;5028347;28;20430;-59
2022/03/30 03:20:45;;;;;;;11.93;5.10;;;;;;;;;;5027898;28;20518;-59
2022/03/30 03:23:12;;;;;;;9.37;4.30;;;;;;;;;;5028363;28;20461;-59
2022/03/30 03:25:56;;;;;;;14.03;4.93;;;;;;;;;;5027821;28;20421;-59
2022/03/30 03:28:23;;;;;;;9.53;4.90;;;;;;;;;;5027799;28;20435;-59
2022/03/30 03:30:50;;;;;;;7.63;4.00;;;;;;;;;;5028466;28;20430;-59
2022/03/30 03:33:17;;;;;;;11.17;3.97;;;;;;;;;;5028085;28;20473;-59
2022/03/30 03:35:45;;;;;;;8.60;3.67;;;;;;;;;;5028045;28;20848;-59
2022/03/30 03:38:11;;;;;;;9.83;3.83;;;;;;;;;;5028171;28;20438;-59
2022/03/30 03:40:40;;;;;;;9.37;4.47;;;;;;;;;;5043295;28;20443;-59
2022/03/30 03:43:09;;;;;;;8.67;3.63;;;;;;;;;;5048040;28;20754;-59
2022/03/30 03:45:36;;;;;;;10.97;4.27;;;;;;;;;;5047662;28;20438;-59
2022/03/30 03:48:03;;;;;;;12.73;5.00;;;;;;;;;;5047434;28;20421;-59
2022/03/30 03:50:30;;;;;;;9.33;4.33;;;;;;;;;;5047973;28;20820;-59
2022/03/30 03:52:56;;;;;;;8.20;4.17;;;;;;;;;;5048034;28;20473;-59
2022/03/30 03:55:23;;;;;;;10.47;4.00;;;;;;;;;;5046471;28;20620;-59
2022/03/30 03:57:50;;;;;;;9.47;4.10;;;;;;;;;;5048204;28;20535;-59
2022/03/30 04:00:17;;;;;;;11.17;4.40;;;;;;;;;;5045838;28;21063;-59
2022/03/30 04:02:44;;;;;;;8.10;3.73;;;;;;;;;;5032523;28;20436;-59
2022/03/30 04:05:13;;;;;;;10.00;4.10;;;;;;;;;;5051824;28;20437;-59
2022/03/30 04:07:39;;;;;;;10.63;4.33;;;;;;;;;;5051163;28;20549;-59
2022/03/30 04:10:07;;;;;;;9.33;4.07;;;;;;;;;;5040184;28;20437;-59
2022/03/30 04:12:33;;;;;;;9.70;4.47;;;;;;;;;;5042332;28;20833;-59
2022/03/30 04:15:18;;;;;;;17.07;5.77;;;;;;;;;;5051494;28;20415;-59
2022/03/30 04:17:45;;;;;;;10.27;4.80;;;;;;;;;;5070385;28;20424;-59
2022/03/30 04:20:12;;;;;;;9.97;4.83;;;;;;;;;;5071189;28;20471;-59
2022/03/30 04:22:39;;;;;;;9.23;5.40;;;;;;;;;;5070986;28;20454;-59
2022/03/30 04:25:06;;;;;;;12.80;5.00;;;;;;;;;;5050686;28;20445;-59
2022/03/30 04:27:33;;;;;;;11.77;5.67;;;;;;;;;;5051113;28;20891;-59
2022/03/30 04:30:00;;;;;;;9.63;5.30;;;;;;;;;;5050787;28;20483;-59
2022/03/30 04:32:26;;;;;;;8.93;5.13;;;;;;;;;;5039018;28;20468;-59
2022/03/30 04:34:53;;;;;;;11.90;6.10;;;;;;;;;;5069170;28;20439;-59
2022/03/30 04:37:20;;;;;;;10.07;5.43;;;;;;;;;;5069584;28;20757;-59
2022/03/30 04:39:47;;;;;;;9.83;5.40;;;;;;;;;;5062202;28;20521;-59
2022/03/30 04:42:14;;;;;;;9.60;4.93;;;;;;;;;;5069986;28;20416;-60
2022/03/30 04:44:42;;;;;;;9.57;5.30;;;;;;;;;;5058821;28;20425;-58
2022/03/30 04:47:08;;;;;;;7.93;4.57;;;;;;;;;;5035723;28;20438;-58
2022/03/30 04:49:35;;;;;;;8.13;4.10;;;;;;;;;;5031884;28;20446;-58
2022/03/30 04:52:02;;;;;;;7.13;3.87;;;;;;;;;;5030918;28;20472;-58
2022/03/30 04:54:29;;;;;;;7.97;4.07;;;;;;;;;;5038928;28;20445;-59
2022/03/30 04:57:13;;;;;;;10.13;4.77;;;;;;;;;;5050301;28;20421;-58
2022/03/30 04:59:43;;;;;;;5.60;4.00;;;;;;;;;;5049428;28;20450;-61
2022/03/30 05:02:27;;;;;;;5.30;3.97;;;;;;;;;;5044545;28;20441;-60
2022/03/30 05:04:54;;;;;;;7.97;3.80;;;;;;;;;;5055126;28;20504;-58
2022/03/30 05:07:38;;;;;;;4.87;3.43;;;;;;;;;;5068863;28;20505;-58
2022/03/30 05:10:06;;;;;;;6.80;3.40;;;;;;;;;;5070190;28;20527;-59
2022/03/30 05:12:32;;;;;;;5.57;3.40;;;;;;;;;;5069860;28;20486;-58
2022/03/30 05:15:04;;;;;;;5.60;3.20;;;;;;;;;;5069243;28;20527;-59
2022/03/30 05:17:31;;;;;;;5.90;2.70;;;;;;;;;;5070122;28;20431;-59
2022/03/30 05:20:16;;;;;;;9.33;3.30;;;;;;;;;;5070229;28;20526;-58
2022/03/30 05:22:43;;;;;;;6.40;3.23;;;;;;;;;;5069577;28;20444;-59
2022/03/30 05:25:10;;;;;;;6.97;3.60;;;;;;;;;;5070297;28;20450;-58
2022/03/30 05:27:37;;;;;;;6.60;3.23;;;;;;;;;;5069847;28;20429;-58
2022/03/30 05:30:05;;;;;;;5.50;3.03;;;;;;;;;;5069514;28;20441;-59
2022/03/30 05:32:32;;;;;;;6.67;2.80;;;;;;;;;;5069433;28;20490;-59
2022/03/30 05:34:58;;;;;;;5.13;3.60;;;;;;;;;;5069658;28;20463;-59
2022/03/30 05:37:25;;;;;;;6.70;3.23;;;;;;;;;;5069383;28;20483;-58
2022/03/30 05:39:52;;;;;;;4.60;3.10;;;;;;;;;;5060840;28;20438;-59
2022/03/30 05:42:20;;;;;;;5.53;2.87;;;;;;;;;;5049505;28;20437;-59
2022/03/30 05:44:47;;;;;;;6.77;2.87;;;;;;;;;;5049043;28;20441;-60
2022/03/30 05:47:14;;;;;;;5.20;2.63;;;;;;;;;;5049452;28;20428;-58
2022/03/30 05:49:41;;;;;;;4.93;2.60;;;;;;;;;;5049517;28;20429;-59
2022/03/30 05:52:08;;;;;;;3.60;2.00;;;;;;;;;;5049517;28;20473;-59
2022/03/30 05:54:40;;;;;;;3.43;1.30;;;;;;;;;;5049185;28;20429;-59
2022/03/30 05:57:07;;;;;;;2.33;1.10;;;;;;;;;;5048807;28;20421;-60
2022/03/30 05:59:35;;;;;;;6.57;2.30;;;;;;;;;;5048954;28;20519;-59
2022/03/30 06:02:02;;;;;;;4.20;1.50;;;;;;;;;;5047724;28;20432;-59
2022/03/30 06:04:29;;;;;;;4.07;1.47;;;;;;;;;;5049205;28;20469;-59
2022/03/30 06:06:56;;;;;;;4.43;1.60;;;;;;;;;;5049309;28;20512;-59
2022/03/30 06:09:23;;;;;;;4.23;1.80;;;;;;;;;;5048897;28;20433;-59
2022/03/30 06:12:05;;;;;;;4.10;1.70;;;;;;;;;;5007165;28;20523;-61
2022/03/30 06:14:32;;;;;;;2.37;1.30;;;;;;;;;;5040071;28;20448;-61
2022/03/30 06:17:00;;;;;;;3.33;1.33;;;;;;;;;;5041724;28;20499;-60
2022/03/30 06:19:27;;;;;;;5.83;1.63;;;;;;;;;;5041246;28;20487;-61
2022/03/30 06:21:54;;;;;;;3.20;1.27;;;;;;;;;;5041010;28;20441;-60
2022/03/30 06:24:21;;;;;;;3.23;1.33;;;;;;;;;;5041740;28;20538;-60
2022/03/30 06:26:48;;;;;;;3.17;1.30;;;;;;;;;;5040703;28;20453;-62
2022/03/30 06:29:15;;;;;;;4.73;1.30;;;;;;;;;;5041504;28;20437;-61
2022/03/30 06:31:42;;;;;;;1.97;1.40;;;;;;;;;;5038161;28;20532;-61
2022/03/30 06:34:09;;;;;;;6.20;2.07;;;;;;;;;;5041485;28;20437;-60
2022/03/30 06:36:38;;;;;;;4.17;1.80;;;;;;;;;;5039299;28;21181;-59
2022/03/30 06:39:05;;;;;;;2.27;1.40;;;;;;;;;;5041239;28;20468;-59
2022/03/30 06:41:32;;;;;;;5.03;1.40;;;;;;;;;;5040170;28;20445;-60
2022/03/30 06:43:59;;;;;;;4.53;1.10;;;;;;;;;;5041084;28;20469;-59
2022/03/30 06:46:28;;;;;;;3.13;1.13;;;;;;;;;;5039177;28;20437;-59
2022/03/30 06:48:56;;;;;;;3.17;1.23;;;;;;;;;;5040865;28;20970;-60
2022/03/30 06:51:23;;;;;;;3.07;1.53;;;;;;;;;;5039785;28;20495;-60
2022/03/30 06:53:50;;;;;;;3.23;1.30;;;;;;;;;;5039766;28;21059;-59
2022/03/30 06:56:17;;;;;;;1.93;1.00;;;;;;;;;;5039979;28;20499;-61
2022/03/30 06:58:43;;;;;;;2.70;1.20;;;;;;;;;;5039686;28;21245;-59
2022/03/30 07:01:12;;;;;;;3.43;1.20;;;;;;;;;;5041009;28;20449;-60
2022/03/30 07:03:39;;;;;;;4.40;1.67;;;;;;;;;;5039459;28;20480;-59
2022/03/30 07:06:06;;;;;;;2.60;1.20;;;;;;;;;;5039348;28;20538;-59
2022/03/30 07:11:18;;;;;;;1.37;0.80;;;;;;;;;;5039857;28;20452;-61
2022/03/30 07:13:45;;;;;;;2.23;1.13;;;;;;;;;;5038946;28;20476;-60
2022/03/30 07:16:12;;;;;;;2.10;1.20;;;;;;;;;;5038457;28;20465;-60
2022/03/30 07:18:39;;;;;;;2.23;1.00;;;;;;;;;;5039387;28;20433;-60
2022/03/30 07:21:06;;;;;;;2.00;1.00;;;;;;;;;;5039935;28;20517;-59
2022/03/30 07:23:33;;;;;;;2.77;1.10;;;;;;;;;;5041022;28;20527;-60
2022/03/30 07:26:20;;;;;;;1.70;0.90;;;;;;;;;;5041108;28;20437;-60
2022/03/30 07:28:49;;;;;;;3.30;0.90;;;;;;;;;;5038924;28;21170;-62
2022/03/30 07:31:34;;;;;;;2.10;1.00;;;;;;;;;;5041312;28;20429;-62
2022/03/30 07:34:01;;;;;;;1.90;0.80;;;;;;;;;;5041752;28;20824;-62
2022/03/30 07:36:45;;;;;;;1.77;0.90;;;;;;;;;;5041686;28;20437;-64
2022/03/30 07:39:12;;;;;;;1.70;0.80;;;;;;;;;;5044977;28;20809;-63
2022/03/30 07:41:56;;;;;;;2.20;0.80;;;;;;;;;;5045144;28;20466;-62
2022/03/30 07:44:23;;;;;;;2.13;0.97;;;;;;;;;;5044749;28;20445;-64
2022/03/30 07:46:50;;;;;;;1.60;0.87;;;;;;;;;;5043568;28;20463;-62
2022/03/30 07:49:17;;;;;;;2.10;0.90;;;;;;;;;;5044556;28;20444;-64
2022/03/30 07:51:44;;;;;;;2.77;1.20;;;;;;;;;;5042376;28;20456;-63
2022/03/30 07:54:31;;;;;;;2.63;1.20;;;;;;;;;;5043961;28;20974;-64
2022/03/30 07:56:59;;;;;;;1.07;0.70;;;;;;;;;;5043672;28;20425;-63
2022/03/30 07:59:44;;;;;;;3.43;1.30;;;;;;;;;;5042849;28;20421;-62
2022/03/30 08:02:13;;;;;;;2.80;1.00;;;;;;;;;;5044042;28;20441;-61
2022/03/30 08:04:40;;;;;;;4.00;1.30;;;;;;;;;;5044245;28;20469;-63
2022/03/30 08:07:07;;;;;;;6.47;2.37;;;;;;;;;;5043964;28;20455;-60
2022/03/30 08:09:36;;;;;;;2.20;1.23;;;;;;;;;;5044991;28;20476;-66
2022/03/30 08:12:21;;;;;;;2.43;1.10;;;;;;;;;;5043091;28;20574;-64
2022/03/30 08:14:48;;;;;;;1.80;0.80;;;;;;;;;;5041983;28;20505;-62
2022/03/30 08:17:15;;;;;;;1.23;0.80;;;;;;;;;;5041651;28;20960;-61
2022/03/30 08:19:42;;;;;;;2.50;1.00;;;;;;;;;;5043178;28;21370;-59
2022/03/30 08:22:28;;;;;;;1.10;0.70;;;;;;;;;;5043464;28;20527;-63
2022/03/30 08:24:56;;;;;;;1.10;0.80;;;;;;;;;;5042011;28;20504;-62
2022/03/30 08:27:25;;;;;;;2.83;0.80;;;;;;;;;;5042307;28;20455;-60
2022/03/30 08:29:52;;;;;;;1.50;0.67;;;;;;;;;;5043716;28;20447;-63
2022/03/30 08:32:21;;;;;;;1.30;0.70;;;;;;;;;;5043929;28;21098;-61
2022/03/30 08:34:48;;;;;;;1.80;0.70;;;;;;;;;;5044639;28;20453;-60
2022/03/30 08:37:15;;;;;;;2.73;0.97;;;;;;;;;;5044158;28;20444;-61
2022/03/30 08:39:42;;;;;;;1.80;0.87;;;;;;;;;;5042207;28;20848;-61
2022/03/30 08:42:09;;;;;;;1.77;0.93;;;;;;;;;;5042715;28;20452;-61
2022/03/30 08:44:37;;;;;;;1.83;0.90;;;;;;;;;;5042747;28;20433;-64
2022/03/30 08:47:04;;;;;;;0.90;0.60;;;;;;;;;;5043096;28;20480;-63
2022/03/30 08:49:37;;;;;;;1.00;0.60;;;;;;;;;;5037328;28;20468;-62
2022/03/30 08:52:07;;;;;;;3.63;1.20;;;;;;;;;;5043012;28;20445;-60
2022/03/30 08:54:34;;;;;;;4.43;1.93;;;;;;;;;;5042191;28;20526;-62
2022/03/30 08:57:01;;;;;;;2.87;1.10;;;;;;;;;;5041944;28;20447;-62
2022/03/30 08:59:28;;;;;;;2.10;1.23;;;;;;;;;;5043564;28;20441;-61
2022/03/30 09:01:56;;;;;;;2.70;1.43;;;;;;;;;;5042444;28;20441;-59
2022/03/30 09:04:25;;;;;;;2.53;1.47;;;;;;;;;;5043296;28;20476;-62
2022/03/30 09:06:55;;;;;;;2.73;1.30;;;;;;;;;;5043528;28;20792;-60
2022/03/30 09:09:36;;;;;;;3.00;0.80;;;;;;;;;;5043716;28;21257;-61
2022/03/30 09:12:24;;;;;;;1.70;0.80;;;;;;;;;;5042766;28;20486;-61
2022/03/30 09:15:04;;;;;;;3.63;1.00;;;;;;;;;;5043942;28;20997;-63
2022/03/30 09:18:01;;;;;;;3.17;1.70;;;;;;;;;;5043555;28;20839;-61
2022/03/30 09:20:37;;;;;;;4.03;2.63;;;;;;;;;;5042005;28;20465;-60
2022/03/30 09:23:04;;;;;;;2.73;1.20;;;;;;;;;;5042740;28;20441;-61
2022/03/30 09:25:48;;;;;;;4.10;2.17;;;;;;;;;;5041770;28;20581;-61
2022/03/30 09:28:19;;;;;;;3.43;1.67;;;;;;;;;;5042647;28;20440;-59
2022/03/30 09:30:46;;;;;;;2.50;1.47;;;;;;;;;;5041501;28;20928;-61
2022/03/30 09:33:16;;;;;;;2.33;1.20;;;;;;;;;;5042996;28;20487;-64
2022/03/30 09:35:43;;;;;;;1.67;1.10;;;;;;;;;;5042678;28;20463;-64
2022/03/30 09:38:10;;;;;;;2.03;1.40;;;;;;;;;;5042574;28;20444;-63
2022/03/30 09:40:47;;;;;;;2.90;1.20;;;;;;;;;;5043640;28;20446;-60
2022/03/30 09:43:15;;;;;;;1.87;1.20;;;;;;;;;;5041760;28;20433;-61
2022/03/30 09:45:43;;;;;;;1.37;0.87;;;;;;;;;;5042471;28;20500;-62
2022/03/30 09:48:21;;;;;;;0.90;0.73;;;;;;;;;;5042884;28;20429;-62
2022/03/30 09:50:50;;;;;;;1.87;0.83;;;;;;;;;;5042347;28;20931;-61
2022/03/30 09:53:18;;;;;;;0.83;0.60;;;;;;;;;;5037843;28;20559;-62
2022/03/30 09:55:53;;;;;;;1.00;0.43;;;;;;;;;;5027424;28;22115;-60
2022/03/30 09:58:21;;;;;;;1.77;0.70;;;;;;;;;;5027031;28;20487;-62
2022/03/30 10:01:03;;;;;;;1.87;0.80;;;;;;;;;;5045040;28;20726;-60
2022/03/30 10:03:45;;;;;;;0.70;0.60;;;;;;;;;;5043779;28;20464;-62
2022/03/30 10:06:13;;;;;;;0.93;0.60;;;;;;;;;;5039891;28;20474;-62
2022/03/30 10:08:57;;;;;;;0.70;0.50;;;;;;;;;;5041810;28;20433;-61
2022/03/30 10:11:25;;;;;;;2.40;0.70;;;;;;;;;;5021900;28;20440;-61
2022/03/30 10:14:12;;;;;;;1.93;0.63;;;;;;;;;;5039585;28;20476;-60
2022/03/30 10:16:40;;;;;;;0.57;0.40;;;;;;;;;;5038338;28;20434;-61
2022/03/30 10:19:25;;;;;;;1.07;0.60;;;;;;;;;;5039647;28;20467;-60
2022/03/30 10:22:11;;;;;;;0.63;0.47;;;;;;;;;;5039019;28;20534;-60
2022/03/30 10:24:43;;;;;;;0.73;0.60;;;;;;;;;;5040569;28;20536;-62
2022/03/30 10:27:20;;;;;;;1.77;0.40;;;;;;;;;;5041002;28;20441;-62
2022/03/30 10:29:52;;;;;;;0.97;0.60;;;;;;;;;;5039992;28;20487;-60
2022/03/30 10:32:20;;;;;;;0.50;0.30;;;;;;;;;;5040253;28;20469;-62
2022/03/30 10:34:52;;;;;;;3.13;1.07;;;;;;;;;;5041449;28;21074;-59
2022/03/30 10:37:40;;;;;;;4.47;1.30;;;;;;;;;;5041384;28;20542;-60
2022/03/30 10:40:08;;;;;;;3.37;1.20;;;;;;;;;;5042374;28;20442;-59
2022/03/30 10:42:48;;;;;;;0.83;0.40;;;;;;;;;;5040465;28;20433;-61
2022/03/30 10:45:23;;;;;;;2.40;0.93;;;;;;;;;;5040802;28;20633;-61
2022/03/30 10:48:09;;;;;;;0.60;0.40;;;;;;;;;;5040890;28;20441;-61
2022/03/30 10:50:40;;;;;;;0.80;0.47;;;;;;;;;;5041005;28;20468;-60
2022/03/30 10:53:26;;;;;;;0.70;0.40;;;;;;;;;;5041247;28;20575;-60
2022/03/30 10:55:54;;;;;;;1.80;0.70;;;;;;;;;;5040615;28;20445;-59
2022/03/30 10:58:21;;;;;;;6.97;1.70;;;;;;;;;;5040852;28;20804;-60
2022/03/30 11:00:48;;;;;;;2.60;0.60;;;;;;;;;;5040538;28;20527;-60
2022/03/30 11:03:16;;;;;;;1.77;0.93;;;;;;;;;;5040676;28;20523;-60
2022/03/30 11:05:58;;;;;;;6.40;3.37;;;;;;;;;;5040451;28;20445;-60
2022/03/30 11:08:31;;;;;;;18.80;6.67;;;;;;;;;;5038669;28;20951;-61
2022/03/30 11:11:06;;;;;;;2.17;0.67;;;;;;;;;;5038980;28;20499;-61
2022/03/30 11:13:32;;;;;;;6.57;2.30;;;;;;;;;;5040125;28;20978;-61
2022/03/30 11:15:59;;;;;;;2.53;1.27;;;;;;;;;;5041287;28;20436;-60
2022/03/30 11:18:27;;;;;;;35.00;8.93;;;;;;;;;;5040220;28;20441;-60
2022/03/30 11:21:11;;;;;;;21.30;5.90;;;;;;;;;;5040554;28;20483;-61
2022/03/30 11:23:39;;;;;;;5.23;3.37;;;;;;;;;;5039712;28;20457;-60
2022/03/30 11:26:06;;;;;;;7.00;3.37;;;;;;;;;;5041101;28;20956;-61
2022/03/30 11:28:34;;;;;;;2.77;0.80;;;;;;;;;;5040208;28;20943;-62
2022/03/30 11:31:03;;;;;;;2.30;0.90;;;;;;;;;;5039672;28;20442;-62
2022/03/30 11:33:34;;;;;;;9.93;3.77;;;;;;;;;;5042888;28;20461;-61
2022/03/30 11:36:02;;;;;;;1.87;1.00;;;;;;;;;;5042457;28;20551;-63
2022/03/30 11:38:39;;;;;;;5.13;1.80;;;;;;;;;;5041768;28;20834;-60
2022/03/30 11:41:06;;;;;;;5.93;2.83;;;;;;;;;;5041558;28;21256;-61
2022/03/30 11:45:12;;;;;;;13.50;5.90;;;;;;;;;;5042326;28;20439;-62
2022/03/30 11:46:25;;;;;;;5.33;3.13;;;;;;;;;;5040040;28;20452;-62
2022/03/30 11:48:52;;;;;;;2.67;1.00;;;;;;;;;;5040797;28;20416;-64
2022/03/30 11:51:24;;;;;;;3.77;1.20;;;;;;;;;;5039712;28;21058;-61
2022/03/30 11:54:08;;;;;;;2.20;1.13;;;;;;;;;;5040630;28;21035;-60
2022/03/30 11:56:35;;;;;;;0.93;0.50;;;;;;;;;;5038288;28;20437;-60
2022/03/30 11:59:02;;;;;;;2.67;0.80;;;;;;;;;;5038793;28;20452;-61
2022/03/30 12:01:29;;;;;;;1.83;1.23;;;;;;;;;;5038755;28;21165;-60
2022/03/30 12:03:56;;;;;;;2.23;0.90;;;;;;;;;;5039320;28;20500;-59
2022/03/30 12:06:23;;;;;;;1.07;0.60;;;;;;;;;;5038622;28;20455;-61
2022/03/30 12:08:50;;;;;;;4.17;1.40;;;;;;;;;;5038048;28;20577;-61
2022/03/30 12:11:20;;;;;;;2.60;0.90;;;;;;;;;;5034400;28;20532;-60
2022/03/30 12:14:11;;;;;;;1.87;0.97;;;;;;;;;;5039303;28;21024;-60
2022/03/30 12:16:38;;;;;;;1.30;0.80;;;;;;;;;;5039204;28;20436;-61
2022/03/30 12:19:06;;;;;;;2.33;0.70;;;;;;;;;;5040169;28;20433;-61
2022/03/30 12:21:34;;;;;;;1.27;0.50;;;;;;;;;;5040071;28;20470;-59
2022/03/30 12:24:03;;;;;;;8.43;4.17;;;;;;;;;;5040334;28;20453;-59
2022/03/30 12:26:52;;;;;;;5.07;1.37;;;;;;;;;;5042646;28;20445;-59
2022/03/30 12:29:19;;;;;;;4.30;1.43;;;;;;;;;;5042919;28;20543;-59
2022/03/30 12:31:59;;;;;;;4.27;2.10;;;;;;;;;;5042780;28;20441;-59
2022/03/30 12:34:30;;;;;;;8.10;3.93;;;;;;;;;;5043940;28;20484;-59
2022/03/30 12:36:58;;;;;;;0.50;0.50;;;;;;;;;;5042486;28;20942;-58
2022/03/30 12:39:26;;;;;;;1.80;0.67;;;;;;;;;;5040190;28;20924;-59
2022/03/30 12:41:56;;;;;;;1.57;1.17;;;;;;;;;;5043371;28;20437;-59
2022/03/30 12:44:23;;;;;;;4.30;2.60;;;;;;;;;;5044083;28;20482;-60
2022/03/30 12:46:52;;;;;;;1.27;0.80;;;;;;;;;;5049580;28;20872;-59
2022/03/30 12:49:30;;;;;;;2.93;0.87;;;;;;;;;;5043618;28;21214;-60
2022/03/30 12:52:03;;;;;;;2.73;1.90;;;;;;;;;;5030155;28;20470;-61
2022/03/30 12:54:30;;;;;;;2.03;1.80;;;;;;;;;;5030647;28;21089;-60
2022/03/30 12:56:57;;;;;;;2.60;1.80;;;;;;;;;;5030925;28;20793;-60
2022/03/30 12:59:25;;;;;;;1.47;1.27;;;;;;;;;;5030073;28;20794;-60
2022/03/30 13:01:51;;;;;;;1.73;0.93;;;;;;;;;;5030667;28;20445;-60
2022/03/30 13:04:22;;;;;;;1.40;0.80;;;;;;;;;;5030687;28;20912;-60
2022/03/30 13:07:11;;;;;;;6.23;4.43;;;;;;;;;;5029518;28;20528;-60
2022/03/30 13:09:39;;;;;;;6.20;2.40;;;;;;;;;;5030435;28;20495;-60
2022/03/30 13:12:06;;;;;;;4.70;1.13;;;;;;;;;;5030261;28;20432;-60
2022/03/30 13:14:33;;;;;;;3.83;1.70;;;;;;;;;;5030371;28;20468;-60
2022/03/30 13:17:07;;;;;;;2.10;0.87;;;;;;;;;;5029854;28;20495;-60
2022/03/30 13:19:34;;;;;;;2.43;0.80;;;;;;;;;;5030127;28;20517;-59
2022/03/30 13:22:03;;;;;;;3.60;1.37;;;;;;;;;;5030442;28;20543;-59
2022/03/30 13:24:30;;;;;;;1.00;0.53;;;;;;;;;;5030069;28;20985;-59
2022/03/30 13:26:58;;;;;;;3.17;0.70;;;;;;;;;;5030311;28;20429;-59
2022/03/30 13:29:25;;;;;;;2.73;0.87;;;;;;;;;;5029582;28;20434;-60
2022/03/30 13:31:51;;;;;;;4.40;1.17;;;;;;;;;;5029926;28;20491;-59
2022/03/30 13:34:19;;;;;;;5.60;0.80;;;;;;;;;;5029971;28;20930;-59
2022/03/30 13:36:46;;;;;;;2.10;1.00;;;;;;;;;;5029454;28;20433;-59
2022/03/30 13:39:13;;;;;;;0.53;0.40;;;;;;;;;;5033597;28;20439;-59
2022/03/30 13:41:40;;;;;;;1.00;0.50;;;;;;;;;;5049556;28;20436;-60
2022/03/30 13:44:07;;;;;;;1.40;0.40;;;;;;;;;;5040728;28;20939;-60
2022/03/30 13:46:41;;;;;;;0.70;0.50;;;;;;;;;;5039127;28;20441;-60
2022/03/30 13:49:08;;;;;;;0.43;0.40;;;;;;;;;;5040906;28;20942;-62
2022/03/30 13:51:35;;;;;;;1.13;0.40;;;;;;;;;;5039958;28;20445;-60
2022/03/30 13:54:03;;;;;;;0.40;0.30;;;;;;;;;;5040409;28;20481;-59
2022/03/30 13:56:30;;;;;;;1.20;0.50;;;;;;;;;;5040464;28;20442;-60
2022/03/30 13:58:57;;;;;;;1.10;0.50;;;;;;;;;;5041145;28;20547;-61
2022/03/30 14:01:28;;;;;;;3.83;0.60;;;;;;;;;;5041957;28;20980;-59
2022/03/30 14:03:55;;;;;;;5.63;1.27;;;;;;;;;;5042574;28;20870;-59
2022/03/30 14:06:23;;;;;;;1.07;0.53;;;;;;;;;;5040952;28;20526;-62
2022/03/30 14:08:49;;;;;;;5.80;1.70;;;;;;;;;;5040226;28;20524;-61
2022/03/30 14:11:17;;;;;;;2.40;0.50;;;;;;;;;;5042658;28;20437;-62
2022/03/30 14:13:45;;;;;;;4.07;2.10;;;;;;;;;;5042127;28;20445;-61
2022/03/30 14:16:13;;;;;;;1.67;0.60;;;;;;;;;;5040696;28;20463;-62
2022/03/30 14:18:57;;;;;;;1.60;0.63;;;;;;;;;;5041599;28;20425;-61
2022/03/30 14:21:24;;;;;;;6.43;1.70;;;;;;;;;;5041793;28;20483;-60
2022/03/30 14:23:52;;;;;;;24.70;8.23;;;;;;;;;;5039993;28;20447;-61
2022/03/30 14:26:19;;;;;;;54.73;20.17;;;;;;;;;;5039477;28;20439;-60
2022/03/30 14:28:46;;;;;;;12.73;6.50;;;;;;;;;;5039290;28;20445;-61
2022/03/30 14:31:14;;;;;;;8.90;5.20;;;;;;;;;;5038057;28;20953;-61
2022/03/30 14:33:41;;;;;;;2.00;0.97;;;;;;;;;;5040528;28;20441;-62
2022/03/30 14:36:08;;;;;;;6.83;5.57;;;;;;;;;;5039929;28;20475;-61
2022/03/30 14:38:35;;;;;;;3.87;2.80;;;;;;;;;;5042489;28;20457;-60
2022/03/30 14:41:01;;;;;;;2.40;1.17;;;;;;;;;;5048268;28;21139;-61
2022/03/30 14:43:28;;;;;;;7.03;6.33;;;;;;;;;;5048688;28;20452;-60
2022/03/30 14:45:55;;;;;;;1.23;1.13;;;;;;;;;;5048425;28;20462;-60
2022/03/30 14:48:22;;;;;;;1.23;0.50;;;;;;;;;;5047970;28;21169;-61
2022/03/30 14:50:49;;;;;;;6.67;4.67;;;;;;;;;;5048585;28;20422;-61
2022/03/30 14:53:16;;;;;;;5.03;4.53;;;;;;;;;;5048570;28;20430;-61
2022/03/30 14:55:43;;;;;;;1.30;0.97;;;;;;;;;;5047914;28;20539;-60
2022/03/30 14:58:09;;;;;;;5.73;4.67;;;;;;;;;;5048357;28;20789;-61
2022/03/30 15:00:54;;;;;;;1.87;1.00;;;;;;;;;;5048542;28;20410;-60
2022/03/30 15:03:21;;;;;;;2.20;1.27;;;;;;;;;;5047845;28;20476;-61
2022/03/30 15:06:05;;;;;;;1.63;1.27;;;;;;;;;;5048035;28;20409;-61
2022/03/30 15:08:34;;;;;;;4.80;4.20;;;;;;;;;;5047052;28;20429;-60
2022/03/30 15:11:19;;;;;;;7.80;2.30;;;;;;;;;;5047120;28;20421;-61
2022/03/30 15:13:47;;;;;;;3.03;1.30;;;;;;;;;;5047582;28;20448;-61
2022/03/30 15:16:31;;;;;;;0.50;0.50;;;;;;;;;;5048239;28;20910;-60
2022/03/30 15:18:58;;;;;;;0.90;0.40;;;;;;;;;;5048393;28;20527;-61
2022/03/30 15:21:44;;;;;;;1.40;0.80;;;;;;;;;;5047946;28;20429;-60
2022/03/30 15:24:11;;;;;;;1.47;0.63;;;;;;;;;;5048001;28;20417;-61
2022/03/30 15:26:38;;;;;;;0.97;0.70;;;;;;;;;;5046619;28;20448;-60
2022/03/30 15:29:07;;;;;;;0.97;0.30;;;;;;;;;;5047649;28;20468;-60
2022/03/30 15:31:35;;;;;;;3.47;1.17;;;;;;;;;;5047885;28;20902;-60
2022/03/30 15:34:01;;;;;;;0.90;0.50;;;;;;;;;;5046806;28;20472;-61